FWG11W LCPH-LGSA
Flight info
| Callsign | FWG11W |
|---|---|
| Flight time | 1h 9m |
| Altitude | 38000 |
| Route | GENOS DCT TOSKA UM978 SIT/N0468F320 UN1 BAVES |
| Aircraft | A20N/M-SDE2E3FGHIRWXY/LB1 |
Departure
| Time | 2026-05-06 18:17 |
|---|---|
| Airport | Paphos International Airport (LCPH) |
Arrival
| Time | 2026-05-06 19:26 |
|---|---|
| Airport | Chania International Airport (LGSA) |
| Time | Latitude | Longitude | Altitude | Speed | Heading |
|---|---|---|---|---|---|
| 2026-05-06 17:52 | 34.71262 | 32.48415 | 29 ft | 0 kts | 200° |
| 2026-05-06 18:07 | 34.71268 | 32.48418 | 29 ft | 2 kts | 193° |
| 2026-05-06 18:07 | 34.71283 | 32.48419 | 30 ft | 2 kts | 173° |
| 2026-05-06 18:08 | 34.71298 | 32.48415 | 30 ft | 2 kts | 154° |
| 2026-05-06 18:08 | 34.71310 | 32.48405 | 30 ft | 2 kts | 136° |
| 2026-05-06 18:08 | 34.71320 | 32.48391 | 30 ft | 2 kts | 118° |
| 2026-05-06 18:08 | 34.71325 | 32.48374 | 30 ft | 2 kts | 106° |
| 2026-05-06 18:09 | 34.71330 | 32.48357 | 30 ft | 2 kts | 110° |
| 2026-05-06 18:09 | 34.71333 | 32.48348 | 30 ft | 0 kts | 109° |
| 2026-05-06 18:10 | 34.71332 | 32.48358 | 30 ft | 3 kts | 81° |
| 2026-05-06 18:11 | 34.71347 | 32.48390 | 31 ft | 6 kts | 60° |
| 2026-05-06 18:11 | 34.71348 | 32.48463 | 31 ft | 11 kts | 105° |
| 2026-05-06 18:11 | 34.71365 | 32.48562 | 31 ft | 13 kts | 65° |
| 2026-05-06 18:11 | 34.71405 | 32.48665 | 33 ft | 13 kts | 64° |
| 2026-05-06 18:12 | 34.71442 | 32.48764 | 36 ft | 12 kts | 65° |
| 2026-05-06 18:12 | 34.71479 | 32.48862 | 37 ft | 12 kts | 66° |
| 2026-05-06 18:12 | 34.71514 | 32.48950 | 37 ft | 7 kts | 51° |
| 2026-05-06 18:12 | 34.71524 | 32.48962 | 38 ft | 0 kts | 34° |
| 2026-05-06 18:14 | 34.71560 | 32.48982 | 39 ft | 16 kts | 21° |
| 2026-05-06 18:14 | 34.71631 | 32.49072 | 41 ft | 15 kts | 99° |
| 2026-05-06 18:15 | 34.71587 | 32.49227 | 42 ft | 25 kts | 110° |
| 2026-05-06 18:15 | 34.71518 | 32.49456 | 43 ft | 29 kts | 109° |
| 2026-05-06 18:15 | 34.71449 | 32.49687 | 43 ft | 27 kts | 110° |
| 2026-05-06 18:15 | 34.71418 | 32.49834 | 44 ft | 9 kts | 117° |
| 2026-05-06 18:16 | 34.71406 | 32.49828 | 44 ft | 1 kts | 300° |
| 2026-05-06 18:16 | 34.71438 | 32.49733 | 44 ft | 26 kts | 290° |
| 2026-05-06 18:16 | 34.71586 | 32.49243 | 42 ft | 102 kts | 290° |
| 2026-05-06 18:16 | 34.71912 | 32.48157 | 94 ft | 164 kts | 291° |
| 2026-05-06 18:17 | 34.72317 | 32.46821 | 778 ft | 170 kts | 289° |
| 2026-05-06 18:17 | 34.72388 | 32.45466 | 1679 ft | 165 kts | 259° |
| 2026-05-06 18:17 | 34.72085 | 32.44116 | 2411 ft | 174 kts | 255° |
| 2026-05-06 18:17 | 34.71726 | 32.42647 | 3027 ft | 191 kts | 255° |
| 2026-05-06 18:18 | 34.71348 | 32.41050 | 3643 ft | 208 kts | 255° |
| 2026-05-06 18:18 | 34.70948 | 32.39294 | 4230 ft | 229 kts | 256° |
| 2026-05-06 18:18 | 34.70511 | 32.37322 | 4817 ft | 252 kts | 256° |
| 2026-05-06 18:18 | 34.70046 | 32.35206 | 5535 ft | 270 kts | 256° |
| 2026-05-06 18:19 | 34.69559 | 32.32982 | 6482 ft | 278 kts | 257° |
| 2026-05-06 18:19 | 34.69067 | 32.30727 | 7517 ft | 282 kts | 257° |
| 2026-05-06 18:19 | 34.68566 | 32.28431 | 8548 ft | 285 kts | 257° |
| 2026-05-06 18:19 | 34.68058 | 32.26109 | 9543 ft | 289 kts | 258° |
| 2026-05-06 18:20 | 34.67547 | 32.23762 | 10504 ft | 293 kts | 258° |
| 2026-05-06 18:20 | 34.67019 | 32.21330 | 11168 ft | 307 kts | 258° |
| 2026-05-06 18:20 | 34.66501 | 32.18723 | 11685 ft | 325 kts | 262° |
| 2026-05-06 18:20 | 34.66231 | 32.15936 | 12155 ft | 341 kts | 269° |
| 2026-05-06 18:21 | 34.66282 | 32.13039 | 12753 ft | 352 kts | 276° |
| 2026-05-06 18:21 | 34.66479 | 32.10074 | 13611 ft | 355 kts | 277° |
| 2026-05-06 18:21 | 34.66699 | 32.07096 | 14495 ft | 358 kts | 277° |
| 2026-05-06 18:21 | 34.66919 | 32.04081 | 15344 ft | 360 kts | 277° |
| 2026-05-06 18:22 | 34.67135 | 32.01053 | 16172 ft | 363 kts | 277° |
| 2026-05-06 18:22 | 34.67348 | 31.98014 | 16979 ft | 365 kts | 277° |
| 2026-05-06 18:22 | 34.67561 | 31.94952 | 17755 ft | 367 kts | 277° |
| 2026-05-06 18:22 | 34.67786 | 31.91864 | 18504 ft | 370 kts | 278° |
| 2026-05-06 18:23 | 34.68132 | 31.88759 | 19261 ft | 371 kts | 282° |
| 2026-05-06 18:23 | 34.68597 | 31.85707 | 19994 ft | 372 kts | 283° |
| 2026-05-06 18:23 | 34.69093 | 31.82589 | 20703 ft | 375 kts | 283° |
| 2026-05-06 18:23 | 34.69584 | 31.79512 | 21393 ft | 377 kts | 283° |
| 2026-05-06 18:24 | 34.70084 | 31.76373 | 22084 ft | 380 kts | 283° |
| 2026-05-06 18:24 | 34.70587 | 31.73212 | 22747 ft | 382 kts | 283° |
| 2026-05-06 18:24 | 34.71088 | 31.70049 | 23402 ft | 385 kts | 283° |
| 2026-05-06 18:24 | 34.71590 | 31.66862 | 24047 ft | 387 kts | 283° |
| 2026-05-06 18:25 | 34.72100 | 31.63634 | 24651 ft | 389 kts | 283° |
| 2026-05-06 18:25 | 34.72606 | 31.60416 | 25222 ft | 392 kts | 283° |
| 2026-05-06 18:25 | 34.73116 | 31.57158 | 25759 ft | 395 kts | 283° |
| 2026-05-06 18:25 | 34.73630 | 31.53883 | 26323 ft | 397 kts | 283° |
| 2026-05-06 18:26 | 34.74146 | 31.50583 | 26852 ft | 399 kts | 283° |
| 2026-05-06 18:26 | 34.74667 | 31.47243 | 27375 ft | 401 kts | 283° |
| 2026-05-06 18:26 | 34.75185 | 31.43922 | 27836 ft | 404 kts | 283° |
| 2026-05-06 18:26 | 34.75709 | 31.40557 | 28272 ft | 406 kts | 283° |
| 2026-05-06 18:27 | 34.76229 | 31.37196 | 28704 ft | 407 kts | 283° |
| 2026-05-06 18:27 | 34.76754 | 31.33805 | 29128 ft | 409 kts | 283° |
| 2026-05-06 18:27 | 34.77282 | 31.30392 | 29511 ft | 410 kts | 283° |
| 2026-05-06 18:27 | 34.77802 | 31.27029 | 29960 ft | 409 kts | 283° |
| 2026-05-06 18:28 | 34.78321 | 31.23642 | 30487 ft | 406 kts | 283° |
| 2026-05-06 18:28 | 34.78834 | 31.20297 | 30969 ft | 404 kts | 283° |
| 2026-05-06 18:28 | 34.79354 | 31.16915 | 31388 ft | 403 kts | 283° |
| 2026-05-06 18:28 | 34.79866 | 31.13574 | 31812 ft | 402 kts | 283° |
| 2026-05-06 18:29 | 34.80378 | 31.10216 | 32249 ft | 401 kts | 283° |
| 2026-05-06 18:29 | 34.80879 | 31.06933 | 32648 ft | 400 kts | 283° |
| 2026-05-06 18:29 | 34.81387 | 31.03606 | 33051 ft | 399 kts | 283° |
| 2026-05-06 18:29 | 34.81890 | 31.00303 | 33451 ft | 398 kts | 283° |
| 2026-05-06 18:30 | 34.82394 | 30.96976 | 33848 ft | 397 kts | 283° |
| 2026-05-06 18:30 | 34.82891 | 30.93697 | 34221 ft | 395 kts | 283° |
| 2026-05-06 18:30 | 34.83388 | 30.90409 | 34504 ft | 395 kts | 283° |
| 2026-05-06 18:30 | 34.83884 | 30.87122 | 34758 ft | 396 kts | 283° |
| 2026-05-06 18:31 | 34.84381 | 30.83829 | 34978 ft | 397 kts | 283° |
| 2026-05-06 18:31 | 34.84882 | 30.80497 | 35223 ft | 397 kts | 283° |
| 2026-05-06 18:31 | 34.85376 | 30.77201 | 35488 ft | 397 kts | 283° |
| 2026-05-06 18:31 | 34.85868 | 30.73913 | 35725 ft | 397 kts | 283° |
| 2026-05-06 18:32 | 34.86361 | 30.70610 | 35953 ft | 398 kts | 283° |
| 2026-05-06 18:32 | 34.86851 | 30.67324 | 36180 ft | 398 kts | 283° |
| 2026-05-06 18:32 | 34.87347 | 30.63990 | 36400 ft | 400 kts | 282° |
| 2026-05-06 18:32 | 34.87843 | 30.60643 | 36598 ft | 402 kts | 282° |
| 2026-05-06 18:33 | 34.88340 | 30.57295 | 36785 ft | 404 kts | 282° |
| 2026-05-06 18:33 | 34.88831 | 30.53968 | 37004 ft | 405 kts | 283° |
| 2026-05-06 18:33 | 34.89333 | 30.50570 | 37204 ft | 406 kts | 282° |
| 2026-05-06 18:33 | 34.89831 | 30.47187 | 37414 ft | 407 kts | 282° |
| 2026-05-06 18:34 | 34.90325 | 30.43825 | 37575 ft | 409 kts | 282° |
| 2026-05-06 18:34 | 34.90826 | 30.40410 | 37726 ft | 410 kts | 282° |
| 2026-05-06 18:34 | 34.91328 | 30.36984 | 37877 ft | 411 kts | 282° |
| 2026-05-06 18:34 | 34.91834 | 30.33519 | 38000 ft | 413 kts | 282° |
| 2026-05-06 18:35 | 34.92838 | 30.26618 | 38066 ft | 415 kts | 282° |
| 2026-05-06 18:35 | 34.93838 | 30.19711 | 38059 ft | 415 kts | 282° |
| 2026-05-06 18:36 | 34.94831 | 30.12827 | 38059 ft | 416 kts | 282° |
| 2026-05-06 18:36 | 34.95829 | 30.05882 | 38065 ft | 415 kts | 282° |
| 2026-05-06 18:37 | 34.96651 | 29.98971 | 37851 ft | 418 kts | 278° |
| 2026-05-06 18:37 | 34.96860 | 29.95441 | 37531 ft | 418 kts | 276° |
| 2026-05-06 18:37 | 34.97010 | 29.91918 | 37433 ft | 417 kts | 276° |
| 2026-05-06 18:38 | 34.97157 | 29.88399 | 37589 ft | 419 kts | 276° |
| 2026-05-06 18:38 | 34.97303 | 29.84848 | 37785 ft | 419 kts | 276° |
| 2026-05-06 18:38 | 34.97447 | 29.81320 | 38001 ft | 419 kts | 276° |
| 2026-05-06 18:38 | 34.97591 | 29.77762 | 38057 ft | 419 kts | 276° |
| 2026-05-06 18:39 | 34.97876 | 29.70702 | 38058 ft | 420 kts | 276° |
| 2026-05-06 18:40 | 34.98299 | 29.60053 | 38065 ft | 420 kts | 276° |
| 2026-05-06 18:40 | 34.98577 | 29.52944 | 38064 ft | 421 kts | 276° |
| 2026-05-06 18:41 | 34.98848 | 29.45852 | 38064 ft | 421 kts | 276° |
| 2026-05-06 18:41 | 34.99113 | 29.38748 | 38061 ft | 421 kts | 276° |
| 2026-05-06 18:42 | 34.99377 | 29.31628 | 38063 ft | 421 kts | 275° |
| 2026-05-06 18:42 | 34.99509 | 29.28050 | 37847 ft | 423 kts | 275° |
| 2026-05-06 18:42 | 34.99639 | 29.24519 | 37438 ft | 419 kts | 275° |
| 2026-05-06 18:42 | 34.99766 | 29.20997 | 37135 ft | 415 kts | 275° |
| 2026-05-06 18:43 | 34.99892 | 29.17488 | 36832 ft | 412 kts | 275° |
| 2026-05-06 18:43 | 35.00018 | 29.13995 | 36646 ft | 415 kts | 275° |
| 2026-05-06 18:43 | 35.00143 | 29.10518 | 36880 ft | 415 kts | 275° |
| 2026-05-06 18:43 | 35.00265 | 29.07004 | 37305 ft | 413 kts | 275° |
| 2026-05-06 18:44 | 35.00388 | 29.03521 | 37591 ft | 412 kts | 275° |
| 2026-05-06 18:44 | 35.00510 | 28.99983 | 37705 ft | 416 kts | 275° |
| 2026-05-06 18:44 | 35.00631 | 28.96493 | 37681 ft | 418 kts | 275° |
| 2026-05-06 18:44 | 35.00752 | 28.92935 | 37837 ft | 419 kts | 275° |
| 2026-05-06 18:45 | 35.00871 | 28.89381 | 38055 ft | 419 kts | 275° |
| 2026-05-06 18:45 | 35.00988 | 28.85879 | 38278 ft | 419 kts | 275° |
| 2026-05-06 18:45 | 35.01103 | 28.82360 | 38780 ft | 412 kts | 275° |
| 2026-05-06 18:46 | 35.01334 | 28.75280 | 38413 ft | 423 kts | 275° |
| 2026-05-06 18:46 | 35.01449 | 28.71697 | 38117 ft | 424 kts | 275° |
| 2026-05-06 18:46 | 35.01562 | 28.68100 | 38066 ft | 424 kts | 275° |
| 2026-05-06 18:47 | 35.01786 | 28.60951 | 38067 ft | 424 kts | 275° |
| 2026-05-06 18:47 | 35.02006 | 28.53774 | 38064 ft | 424 kts | 275° |
| 2026-05-06 18:48 | 35.02220 | 28.46599 | 38066 ft | 424 kts | 275° |
| 2026-05-06 18:48 | 35.02430 | 28.39435 | 38063 ft | 424 kts | 275° |
| 2026-05-06 18:49 | 35.02636 | 28.32237 | 38065 ft | 424 kts | 274° |
| 2026-05-06 18:49 | 35.02837 | 28.25076 | 38063 ft | 424 kts | 274° |
| 2026-05-06 18:50 | 35.03033 | 28.17886 | 38062 ft | 424 kts | 274° |
| 2026-05-06 18:50 | 35.03225 | 28.10719 | 38068 ft | 425 kts | 274° |
| 2026-05-06 18:51 | 35.03413 | 28.03552 | 38060 ft | 425 kts | 274° |
| 2026-05-06 18:51 | 35.03600 | 27.96313 | 38063 ft | 426 kts | 274° |
| 2026-05-06 18:52 | 35.03780 | 27.89123 | 38066 ft | 426 kts | 274° |
| 2026-05-06 18:52 | 35.03956 | 27.81925 | 38069 ft | 426 kts | 274° |
| 2026-05-06 18:52 | 35.04042 | 27.78291 | 38190 ft | 426 kts | 274° |
| 2026-05-06 18:53 | 35.04128 | 27.74694 | 38262 ft | 426 kts | 274° |
| 2026-05-06 18:53 | 35.04212 | 27.71107 | 38113 ft | 426 kts | 274° |
| 2026-05-06 18:53 | 35.04295 | 27.67484 | 38079 ft | 426 kts | 274° |
| 2026-05-06 18:54 | 35.04458 | 27.60316 | 38188 ft | 426 kts | 274° |
| 2026-05-06 18:54 | 35.04616 | 27.53096 | 38087 ft | 426 kts | 274° |
| 2026-05-06 18:55 | 35.04773 | 27.45897 | 38074 ft | 426 kts | 274° |
| 2026-05-06 18:55 | 35.04929 | 27.38700 | 37945 ft | 426 kts | 274° |
| 2026-05-06 18:55 | 35.05005 | 27.35073 | 37601 ft | 425 kts | 274° |
| 2026-05-06 18:56 | 35.05078 | 27.31486 | 37491 ft | 422 kts | 274° |
| 2026-05-06 18:56 | 35.05151 | 27.27921 | 37655 ft | 422 kts | 274° |
| 2026-05-06 18:56 | 35.05225 | 27.24323 | 37817 ft | 423 kts | 274° |
| 2026-05-06 18:56 | 35.05295 | 27.20748 | 37981 ft | 425 kts | 274° |
| 2026-05-06 18:57 | 35.05365 | 27.17163 | 38068 ft | 427 kts | 274° |
| 2026-05-06 18:57 | 35.05503 | 27.09886 | 38074 ft | 428 kts | 273° |
| 2026-05-06 18:58 | 35.05635 | 27.02673 | 38081 ft | 427 kts | 273° |
| 2026-05-06 18:58 | 35.05761 | 26.95424 | 38081 ft | 428 kts | 273° |
| 2026-05-06 18:59 | 35.05884 | 26.88189 | 38078 ft | 428 kts | 273° |
| 2026-05-06 18:59 | 35.06002 | 26.80903 | 38078 ft | 428 kts | 273° |
| 2026-05-06 19:00 | 35.06117 | 26.73705 | 38074 ft | 428 kts | 273° |
| 2026-05-06 19:00 | 35.06228 | 26.66404 | 38075 ft | 429 kts | 273° |
| 2026-05-06 19:01 | 35.06334 | 26.59167 | 38081 ft | 430 kts | 273° |
| 2026-05-06 19:01 | 35.06435 | 26.51873 | 38080 ft | 430 kts | 273° |
| 2026-05-06 19:02 | 35.06533 | 26.44584 | 38077 ft | 431 kts | 273° |
| 2026-05-06 19:02 | 35.06625 | 26.37283 | 37358 ft | 432 kts | 273° |
| 2026-05-06 19:02 | 35.06668 | 26.33668 | 36614 ft | 429 kts | 273° |
| 2026-05-06 19:03 | 35.06711 | 26.30025 | 35905 ft | 427 kts | 273° |
| 2026-05-06 19:03 | 35.06819 | 26.26459 | 35208 ft | 427 kts | 275° |
| 2026-05-06 19:03 | 35.07081 | 26.22832 | 34439 ft | 428 kts | 278° |
| 2026-05-06 19:03 | 35.07493 | 26.19257 | 33596 ft | 428 kts | 281° |
| 2026-05-06 19:04 | 35.08058 | 26.15698 | 32772 ft | 428 kts | 284° |
| 2026-05-06 19:04 | 35.08764 | 26.12225 | 31960 ft | 427 kts | 287° |
| 2026-05-06 19:04 | 35.09625 | 26.08767 | 31121 ft | 427 kts | 289° |
| 2026-05-06 19:04 | 35.10556 | 26.05349 | 30256 ft | 428 kts | 290° |
| 2026-05-06 19:05 | 35.11498 | 26.01926 | 29370 ft | 429 kts | 290° |
| 2026-05-06 19:05 | 35.12444 | 25.98487 | 28681 ft | 428 kts | 290° |
| 2026-05-06 19:05 | 35.13394 | 25.95023 | 28112 ft | 425 kts | 290° |
| 2026-05-06 19:05 | 35.14320 | 25.91645 | 27535 ft | 421 kts | 290° |
| 2026-05-06 19:06 | 35.15238 | 25.88292 | 26967 ft | 417 kts | 290° |
| 2026-05-06 19:06 | 35.16157 | 25.84929 | 26385 ft | 413 kts | 290° |
| 2026-05-06 19:06 | 35.17063 | 25.81607 | 25804 ft | 409 kts | 290° |
| 2026-05-06 19:06 | 35.17951 | 25.78351 | 25248 ft | 404 kts | 290° |
| 2026-05-06 19:07 | 35.18834 | 25.75105 | 24686 ft | 400 kts | 291° |
| 2026-05-06 19:07 | 35.19706 | 25.71896 | 24129 ft | 397 kts | 291° |
| 2026-05-06 19:07 | 35.20571 | 25.68712 | 23566 ft | 393 kts | 291° |
| 2026-05-06 19:07 | 35.21419 | 25.65589 | 23029 ft | 390 kts | 291° |
| 2026-05-06 19:08 | 35.22273 | 25.62445 | 22474 ft | 387 kts | 291° |
| 2026-05-06 19:08 | 35.23109 | 25.59363 | 21955 ft | 384 kts | 291° |
| 2026-05-06 19:08 | 35.23947 | 25.56270 | 21440 ft | 380 kts | 291° |
| 2026-05-06 19:08 | 35.24762 | 25.53250 | 20919 ft | 377 kts | 291° |
| 2026-05-06 19:09 | 35.25587 | 25.50191 | 20401 ft | 374 kts | 291° |
| 2026-05-06 19:09 | 35.26386 | 25.47225 | 19885 ft | 371 kts | 291° |
| 2026-05-06 19:09 | 35.27188 | 25.44241 | 19348 ft | 368 kts | 291° |
| 2026-05-06 19:09 | 35.27984 | 25.41281 | 18809 ft | 366 kts | 291° |
| 2026-05-06 19:10 | 35.28774 | 25.38338 | 18304 ft | 363 kts | 291° |
| 2026-05-06 19:10 | 35.29555 | 25.35426 | 17773 ft | 361 kts | 290° |
| 2026-05-06 19:10 | 35.30336 | 25.32511 | 17214 ft | 359 kts | 290° |
| 2026-05-06 19:10 | 35.31104 | 25.29640 | 16663 ft | 358 kts | 290° |
| 2026-05-06 19:11 | 35.31874 | 25.26758 | 16083 ft | 358 kts | 290° |
| 2026-05-06 19:11 | 35.32652 | 25.23839 | 15499 ft | 357 kts | 290° |
| 2026-05-06 19:11 | 35.33412 | 25.20991 | 14925 ft | 356 kts | 290° |
| 2026-05-06 19:11 | 35.34123 | 25.18097 | 14349 ft | 355 kts | 287° |
| 2026-05-06 19:12 | 35.34701 | 25.15163 | 13757 ft | 355 kts | 285° |
| 2026-05-06 19:12 | 35.35247 | 25.12222 | 13175 ft | 354 kts | 284° |
| 2026-05-06 19:12 | 35.35784 | 25.09301 | 12597 ft | 353 kts | 284° |
| 2026-05-06 19:12 | 35.36322 | 25.06374 | 12008 ft | 352 kts | 284° |
| 2026-05-06 19:13 | 35.36857 | 25.03471 | 11421 ft | 350 kts | 284° |
| 2026-05-06 19:13 | 35.37384 | 25.00599 | 11008 ft | 342 kts | 284° |
| 2026-05-06 19:13 | 35.37881 | 24.97872 | 10800 ft | 314 kts | 284° |
| 2026-05-06 19:13 | 35.38334 | 24.95381 | 10586 ft | 289 kts | 284° |
| 2026-05-06 19:14 | 35.38764 | 24.93019 | 10417 ft | 277 kts | 284° |
| 2026-05-06 19:14 | 35.39178 | 24.90763 | 10267 ft | 271 kts | 284° |
| 2026-05-06 19:14 | 35.39585 | 24.88535 | 10118 ft | 267 kts | 284° |
| 2026-05-06 19:14 | 35.39990 | 24.86321 | 9780 ft | 268 kts | 284° |
| 2026-05-06 19:15 | 35.40398 | 24.84087 | 9420 ft | 268 kts | 284° |
| 2026-05-06 19:15 | 35.40805 | 24.81856 | 9060 ft | 269 kts | 284° |
| 2026-05-06 19:15 | 35.41211 | 24.79622 | 8707 ft | 269 kts | 284° |
| 2026-05-06 19:15 | 35.41617 | 24.77385 | 8346 ft | 269 kts | 284° |
| 2026-05-06 19:16 | 35.42021 | 24.75164 | 7988 ft | 270 kts | 284° |
| 2026-05-06 19:16 | 35.42430 | 24.72903 | 7630 ft | 269 kts | 284° |
| 2026-05-06 19:16 | 35.42835 | 24.70689 | 7283 ft | 269 kts | 284° |
| 2026-05-06 19:16 | 35.43244 | 24.68460 | 6929 ft | 268 kts | 284° |
| 2026-05-06 19:17 | 35.43653 | 24.66226 | 6571 ft | 268 kts | 284° |
| 2026-05-06 19:17 | 35.44060 | 24.64001 | 6213 ft | 268 kts | 284° |
| 2026-05-06 19:17 | 35.44462 | 24.61801 | 5861 ft | 267 kts | 284° |
| 2026-05-06 19:17 | 35.44870 | 24.59567 | 5516 ft | 266 kts | 284° |
| 2026-05-06 19:18 | 35.45272 | 24.57352 | 5171 ft | 265 kts | 284° |
| 2026-05-06 19:18 | 35.45672 | 24.55154 | 4844 ft | 264 kts | 284° |
| 2026-05-06 19:18 | 35.46064 | 24.52991 | 4517 ft | 262 kts | 284° |
| 2026-05-06 19:18 | 35.46457 | 24.50825 | 4190 ft | 261 kts | 283° |
| 2026-05-06 19:19 | 35.46848 | 24.48667 | 3863 ft | 259 kts | 283° |
| 2026-05-06 19:19 | 35.47237 | 24.46530 | 3671 ft | 247 kts | 283° |
| 2026-05-06 19:19 | 35.47591 | 24.44580 | 3637 ft | 223 kts | 282° |
| 2026-05-06 19:19 | 35.47910 | 24.42823 | 3615 ft | 199 kts | 282° |
| 2026-05-06 19:20 | 35.48187 | 24.41288 | 3665 ft | 170 kts | 282° |
| 2026-05-06 19:20 | 35.48428 | 24.39947 | 3568 ft | 151 kts | 282° |
| 2026-05-06 19:20 | 35.48640 | 24.38762 | 3505 ft | 136 kts | 282° |
| 2026-05-06 19:20 | 35.48842 | 24.37640 | 3493 ft | 135 kts | 281° |
| 2026-05-06 19:21 | 35.49043 | 24.36520 | 3432 ft | 134 kts | 281° |
| 2026-05-06 19:21 | 35.49245 | 24.35387 | 3356 ft | 134 kts | 282° |
| 2026-05-06 19:21 | 35.49446 | 24.34269 | 3276 ft | 134 kts | 281° |
| 2026-05-06 19:21 | 35.49646 | 24.33153 | 3175 ft | 134 kts | 281° |
| 2026-05-06 19:22 | 35.49846 | 24.32043 | 2996 ft | 133 kts | 281° |
| 2026-05-06 19:22 | 35.50036 | 24.30926 | 2936 ft | 134 kts | 278° |
| 2026-05-06 19:22 | 35.50091 | 24.29803 | 2663 ft | 133 kts | 267° |
| 2026-05-06 19:22 | 35.50048 | 24.28679 | 2404 ft | 132 kts | 268° |
| 2026-05-06 19:23 | 35.50052 | 24.27539 | 2201 ft | 132 kts | 273° |
| 2026-05-06 19:23 | 35.50130 | 24.26423 | 2014 ft | 131 kts | 276° |
| 2026-05-06 19:23 | 35.50238 | 24.25308 | 1867 ft | 131 kts | 277° |
| 2026-05-06 19:23 | 35.50391 | 24.24213 | 1725 ft | 131 kts | 282° |
| 2026-05-06 19:24 | 35.50632 | 24.23133 | 1529 ft | 131 kts | 287° |
| 2026-05-06 19:24 | 35.50927 | 24.22069 | 1389 ft | 131 kts | 290° |
| 2026-05-06 19:24 | 35.51243 | 24.21035 | 1222 ft | 130 kts | 290° |
| 2026-05-06 19:24 | 35.51567 | 24.19999 | 1056 ft | 130 kts | 290° |
| 2026-05-06 19:25 | 35.51887 | 24.18970 | 878 ft | 130 kts | 290° |
| 2026-05-06 19:25 | 35.52216 | 24.17931 | 706 ft | 129 kts | 291° |
| 2026-05-06 19:25 | 35.52545 | 24.16914 | 540 ft | 127 kts | 292° |
| 2026-05-06 19:25 | 35.52864 | 24.15929 | 473 ft | 115 kts | 292° |
| 2026-05-06 19:26 | 35.53112 | 24.15167 | 460 ft | 73 kts | 291° |
| 2026-05-06 19:26 | 35.53263 | 24.14710 | 450 ft | 52 kts | 291° |
| 2026-05-06 19:26 | 35.53372 | 24.14369 | 444 ft | 31 kts | 292° |
| 2026-05-06 19:26 | 35.53453 | 24.14272 | 439 ft | 5 kts | 17° |
| 2026-05-06 19:27 | 35.53460 | 24.14275 | 439 ft | 0 kts | 18° |
| 2026-05-06 19:27 | 35.53518 | 24.14301 | 434 ft | 15 kts | 21° |
| 2026-05-06 19:27 | 35.53632 | 24.14358 | 427 ft | 19 kts | 22° |
| 2026-05-06 19:28 | 35.53705 | 24.14304 | 423 ft | 15 kts | 290° |
| 2026-05-06 19:28 | 35.53746 | 24.14177 | 422 ft | 16 kts | 291° |
| 2026-05-06 19:28 | 35.53789 | 24.14046 | 420 ft | 14 kts | 291° |
| 2026-05-06 19:28 | 35.53816 | 24.13962 | 418 ft | 6 kts | 292° |
| 2026-05-06 19:29 | 35.53845 | 24.13937 | 417 ft | 4 kts | 13° |
| 2026-05-06 19:29 | 35.53883 | 24.13956 | 416 ft | 5 kts | 22° |
| 2026-05-06 19:29 | 35.53901 | 24.13965 | 414 ft | 0 kts | 22° |